sensor_id;sensor_type;location;lat;lon;timestamp;P1;durP1;ratioP1;P2;durP2;ratioP2
11490;SDS011;5802;52.832;4.758;2022-10-16T00:01:52;1.77;;;0.93;;
11490;SDS011;5802;52.832;4.758;2022-10-16T00:04:18;6.15;;;1.17;;
11490;SDS011;5802;52.832;4.758;2022-10-16T00:06:45;3.58;;;1.10;;
11490;SDS011;5802;52.832;4.758;2022-10-16T00:09:13;2.28;;;1.10;;
11490;SDS011;5802;52.832;4.758;2022-10-16T00:11:40;5.18;;;1.35;;
11490;SDS011;5802;52.832;4.758;2022-10-16T00:14:08;3.20;;;1.05;;
11490;SDS011;5802;52.832;4.758;2022-10-16T00:16:36;17.23;;;1.40;;
11490;SDS011;5802;52.832;4.758;2022-10-16T00:19:03;4.43;;;1.23;;
11490;SDS011;5802;52.832;4.758;2022-10-16T00:21:30;2.67;;;1.20;;
11490;SDS011;5802;52.832;4.758;2022-10-16T00:23:58;3.22;;;1.20;;
11490;SDS011;5802;52.832;4.758;2022-10-16T00:26:28;2.92;;;1.08;;
11490;SDS011;5802;52.832;4.758;2022-10-16T00:29:02;2.47;;;1.00;;
11490;SDS011;5802;52.832;4.758;2022-10-16T00:31:29;2.80;;;1.10;;
11490;SDS011;5802;52.832;4.758;2022-10-16T00:33:56;2.35;;;0.85;;
11490;SDS011;5802;52.832;4.758;2022-10-16T00:36:24;2.67;;;1.20;;
11490;SDS011;5802;52.832;4.758;2022-10-16T00:38:51;1.85;;;1.10;;
11490;SDS011;5802;52.832;4.758;2022-10-16T00:41:19;3.35;;;1.10;;
11490;SDS011;5802;52.832;4.758;2022-10-16T00:43:49;2.50;;;1.08;;
11490;SDS011;5802;52.832;4.758;2022-10-16T00:46:17;3.47;;;1.25;;
11490;SDS011;5802;52.832;4.758;2022-10-16T00:48:49;2.20;;;1.02;;
11490;SDS011;5802;52.832;4.758;2022-10-16T00:51:18;3.97;;;1.40;;
11490;SDS011;5802;52.832;4.758;2022-10-16T00:53:47;2.75;;;1.05;;
11490;SDS011;5802;52.832;4.758;2022-10-16T00:56:15;2.50;;;1.02;;
11490;SDS011;5802;52.832;4.758;2022-10-16T00:58:42;4.40;;;1.38;;
11490;SDS011;5802;52.832;4.758;2022-10-16T01:01:10;3.85;;;1.38;;
11490;SDS011;5802;52.832;4.758;2022-10-16T01:03:37;3.72;;;1.10;;
11490;SDS011;5802;52.832;4.758;2022-10-16T01:06:09;2.90;;;1.10;;
11490;SDS011;5802;52.832;4.758;2022-10-16T01:08:47;2.72;;;0.93;;
11490;SDS011;5802;52.832;4.758;2022-10-16T01:11:26;2.83;;;1.10;;
11490;SDS011;5802;52.832;4.758;2022-10-16T01:13:59;2.55;;;1.23;;
11490;SDS011;5802;52.832;4.758;2022-10-16T01:16:34;4.95;;;1.13;;
11490;SDS011;5802;52.832;4.758;2022-10-16T01:19:08;3.35;;;1.27;;
11490;SDS011;5802;52.832;4.758;2022-10-16T01:21:40;5.68;;;0.93;;
11490;SDS011;5802;52.832;4.758;2022-10-16T01:24:12;2.13;;;0.95;;
11490;SDS011;5802;52.832;4.758;2022-10-16T01:29:36;3.78;;;1.20;;
11490;SDS011;5802;52.832;4.758;2022-10-16T01:32:10;3.20;;;1.13;;
11490;SDS011;5802;52.832;4.758;2022-10-16T01:34:44;4.55;;;1.75;;
11490;SDS011;5802;52.832;4.758;2022-10-16T01:37:15;2.83;;;0.90;;
11490;SDS011;5802;52.832;4.758;2022-10-16T01:39:51;2.47;;;1.23;;
11490;SDS011;5802;52.832;4.758;2022-10-16T01:42:24;2.67;;;1.00;;
11490;SDS011;5802;52.832;4.758;2022-10-16T01:44:56;1.85;;;1.05;;
11490;SDS011;5802;52.832;4.758;2022-10-16T01:47:25;5.30;;;1.10;;
11490;SDS011;5802;52.832;4.758;2022-10-16T01:49:53;2.75;;;1.00;;
11490;SDS011;5802;52.832;4.758;2022-10-16T01:52:22;3.65;;;1.00;;
11490;SDS011;5802;52.832;4.758;2022-10-16T01:54:52;1.80;;;0.93;;
11490;SDS011;5802;52.832;4.758;2022-10-16T01:57:22;3.90;;;1.23;;
11490;SDS011;5802;52.832;4.758;2022-10-16T01:59:53;3.15;;;1.10;;
11490;SDS011;5802;52.832;4.758;2022-10-16T02:02:25;2.88;;;1.48;;
11490;SDS011;5802;52.832;4.758;2022-10-16T02:04:56;2.92;;;1.20;;
11490;SDS011;5802;52.832;4.758;2022-10-16T02:07:27;1.70;;;0.75;;
11490;SDS011;5802;52.832;4.758;2022-10-16T02:09:54;2.38;;;0.98;;
11490;SDS011;5802;52.832;4.758;2022-10-16T02:12:24;3.30;;;1.15;;
11490;SDS011;5802;52.832;4.758;2022-10-16T02:14:53;2.70;;;0.95;;
11490;SDS011;5802;52.832;4.758;2022-10-16T02:17:20;1.85;;;0.90;;
11490;SDS011;5802;52.832;4.758;2022-10-16T02:19:48;2.65;;;1.10;;
11490;SDS011;5802;52.832;4.758;2022-10-16T02:22:18;3.35;;;1.13;;
11490;SDS011;5802;52.832;4.758;2022-10-16T02:24:50;3.83;;;1.33;;
11490;SDS011;5802;52.832;4.758;2022-10-16T02:27:23;3.42;;;1.13;;
11490;SDS011;5802;52.832;4.758;2022-10-16T02:29:55;2.80;;;1.00;;
11490;SDS011;5802;52.832;4.758;2022-10-16T02:32:27;5.05;;;1.48;;
11490;SDS011;5802;52.832;4.758;2022-10-16T02:34:58;4.13;;;1.27;;
11490;SDS011;5802;52.832;4.758;2022-10-16T02:37:26;4.82;;;1.48;;
11490;SDS011;5802;52.832;4.758;2022-10-16T02:39:54;3.15;;;1.20;;
11490;SDS011;5802;52.832;4.758;2022-10-16T02:42:24;4.32;;;1.38;;
11490;SDS011;5802;52.832;4.758;2022-10-16T02:44:54;2.28;;;0.82;;
11490;SDS011;5802;52.832;4.758;2022-10-16T02:47:21;2.70;;;1.13;;
11490;SDS011;5802;52.832;4.758;2022-10-16T02:49:48;5.15;;;1.10;;
11490;SDS011;5802;52.832;4.758;2022-10-16T02:52:14;2.90;;;0.93;;
11490;SDS011;5802;52.832;4.758;2022-10-16T02:54:41;3.67;;;1.05;;
11490;SDS011;5802;52.832;4.758;2022-10-16T02:57:08;5.22;;;1.17;;
11490;SDS011;5802;52.832;4.758;2022-10-16T02:59:36;1.80;;;0.93;;
11490;SDS011;5802;52.832;4.758;2022-10-16T03:02:03;3.78;;;1.02;;
11490;SDS011;5802;52.832;4.758;2022-10-16T03:04:30;2.58;;;1.02;;
11490;SDS011;5802;52.832;4.758;2022-10-16T03:06:57;2.28;;;1.02;;
11490;SDS011;5802;52.832;4.758;2022-10-16T03:09:23;2.85;;;1.20;;
11490;SDS011;5802;52.832;4.758;2022-10-16T03:11:50;4.38;;;1.23;;
11490;SDS011;5802;52.832;4.758;2022-10-16T03:14:17;4.50;;;1.40;;
11490;SDS011;5802;52.832;4.758;2022-10-16T03:16:45;2.78;;;1.13;;
11490;SDS011;5802;52.832;4.758;2022-10-16T03:19:11;2.88;;;1.20;;
11490;SDS011;5802;52.832;4.758;2022-10-16T03:21:38;2.53;;;1.00;;
11490;SDS011;5802;52.832;4.758;2022-10-16T03:24:05;2.80;;;1.17;;
11490;SDS011;5802;52.832;4.758;2022-10-16T03:26:32;3.53;;;1.33;;
11490;SDS011;5802;52.832;4.758;2022-10-16T03:28:59;3.47;;;1.10;;
11490;SDS011;5802;52.832;4.758;2022-10-16T03:31:27;2.28;;;1.02;;
11490;SDS011;5802;52.832;4.758;2022-10-16T03:33:55;1.88;;;1.10;;
11490;SDS011;5802;52.832;4.758;2022-10-16T03:36:22;3.28;;;1.15;;
11490;SDS011;5802;52.832;4.758;2022-10-16T03:38:49;3.05;;;1.20;;
11490;SDS011;5802;52.832;4.758;2022-10-16T03:41:15;2.03;;;1.10;;
11490;SDS011;5802;52.832;4.758;2022-10-16T03:43:42;2.55;;;1.05;;
11490;SDS011;5802;52.832;4.758;2022-10-16T03:46:09;3.28;;;1.10;;
11490;SDS011;5802;52.832;4.758;2022-10-16T03:48:36;2.40;;;1.02;;
11490;SDS011;5802;52.832;4.758;2022-10-16T03:51:06;2.25;;;1.00;;
11490;SDS011;5802;52.832;4.758;2022-10-16T03:53:32;3.25;;;1.20;;
11490;SDS011;5802;52.832;4.758;2022-10-16T03:55:59;3.85;;;1.00;;
11490;SDS011;5802;52.832;4.758;2022-10-16T03:58:26;2.28;;;1.10;;
11490;SDS011;5802;52.832;4.758;2022-10-16T04:00:52;2.55;;;1.17;;
11490;SDS011;5802;52.832;4.758;2022-10-16T04:03:19;3.00;;;1.08;;
11490;SDS011;5802;52.832;4.758;2022-10-16T04:05:46;2.58;;;0.98;;
11490;SDS011;5802;52.832;4.758;2022-10-16T04:08:14;3.10;;;1.13;;
11490;SDS011;5802;52.832;4.758;2022-10-16T04:10:41;3.00;;;1.05;;
11490;SDS011;5802;52.832;4.758;2022-10-16T04:13:08;2.78;;;1.10;;
11490;SDS011;5802;52.832;4.758;2022-10-16T04:15:35;3.53;;;1.30;;
11490;SDS011;5802;52.832;4.758;2022-10-16T04:18:02;2.83;;;1.08;;
11490;SDS011;5802;52.832;4.758;2022-10-16T04:20:29;3.20;;;1.05;;
11490;SDS011;5802;52.832;4.758;2022-10-16T04:22:55;4.65;;;1.70;;
11490;SDS011;5802;52.832;4.758;2022-10-16T04:25:23;2.60;;;0.90;;
11490;SDS011;5802;52.832;4.758;2022-10-16T04:27:52;3.50;;;1.15;;
11490;SDS011;5802;52.832;4.758;2022-10-16T04:30:19;3.28;;;1.30;;
11490;SDS011;5802;52.832;4.758;2022-10-16T04:32:47;2.70;;;1.27;;
11490;SDS011;5802;52.832;4.758;2022-10-16T04:35:14;3.67;;;1.30;;
11490;SDS011;5802;52.832;4.758;2022-10-16T04:37:41;2.75;;;1.25;;
11490;SDS011;5802;52.832;4.758;2022-10-16T04:40:08;2.53;;;1.20;;
11490;SDS011;5802;52.832;4.758;2022-10-16T04:42:36;1.85;;;1.00;;
11490;SDS011;5802;52.832;4.758;2022-10-16T04:45:03;3.13;;;1.00;;
11490;SDS011;5802;52.832;4.758;2022-10-16T04:47:31;2.58;;;1.13;;
11490;SDS011;5802;52.832;4.758;2022-10-16T04:49:58;3.78;;;1.17;;
11490;SDS011;5802;52.832;4.758;2022-10-16T04:52:27;2.85;;;1.10;;
11490;SDS011;5802;52.832;4.758;2022-10-16T04:54:54;4.00;;;1.33;;
11490;SDS011;5802;52.832;4.758;2022-10-16T04:57:25;3.35;;;1.10;;
11490;SDS011;5802;52.832;4.758;2022-10-16T04:59:53;3.45;;;0.98;;
11490;SDS011;5802;52.832;4.758;2022-10-16T05:02:19;2.13;;;1.10;;
11490;SDS011;5802;52.832;4.758;2022-10-16T05:04:46;3.67;;;1.13;;
11490;SDS011;5802;52.832;4.758;2022-10-16T05:07:13;4.72;;;1.40;;
11490;SDS011;5802;52.832;4.758;2022-10-16T05:09:40;3.13;;;1.20;;
11490;SDS011;5802;52.832;4.758;2022-10-16T05:12:07;2.85;;;1.17;;
11490;SDS011;5802;52.832;4.758;2022-10-16T05:14:33;4.90;;;1.10;;
11490;SDS011;5802;52.832;4.758;2022-10-16T05:17:01;4.25;;;1.20;;
11490;SDS011;5802;52.832;4.758;2022-10-16T05:19:28;4.18;;;1.25;;
11490;SDS011;5802;52.832;4.758;2022-10-16T05:21:55;2.55;;;1.13;;
11490;SDS011;5802;52.832;4.758;2022-10-16T05:24:22;3.30;;;1.10;;
11490;SDS011;5802;52.832;4.758;2022-10-16T05:26:49;2.67;;;1.20;;
11490;SDS011;5802;52.832;4.758;2022-10-16T05:29:16;2.78;;;1.13;;
11490;SDS011;5802;52.832;4.758;2022-10-16T05:31:43;4.13;;;1.30;;
11490;SDS011;5802;52.832;4.758;2022-10-16T05:34:11;3.78;;;1.20;;
11490;SDS011;5802;52.832;4.758;2022-10-16T05:36:37;2.63;;;1.13;;
11490;SDS011;5802;52.832;4.758;2022-10-16T05:39:04;2.30;;;0.98;;
11490;SDS011;5802;52.832;4.758;2022-10-16T05:41:31;2.15;;;1.30;;
11490;SDS011;5802;52.832;4.758;2022-10-16T05:43:58;3.40;;;1.20;;
11490;SDS011;5802;52.832;4.758;2022-10-16T05:46:24;2.15;;;0.88;;
11490;SDS011;5802;52.832;4.758;2022-10-16T05:48:51;2.63;;;1.30;;
11490;SDS011;5802;52.832;4.758;2022-10-16T05:51:19;2.78;;;1.15;;
11490;SDS011;5802;52.832;4.758;2022-10-16T05:53:46;2.22;;;1.00;;
11490;SDS011;5802;52.832;4.758;2022-10-16T05:56:13;3.15;;;1.10;;
11490;SDS011;5802;52.832;4.758;2022-10-16T05:58:40;2.90;;;0.88;;
11490;SDS011;5802;52.832;4.758;2022-10-16T06:01:09;2.55;;;1.17;;
11490;SDS011;5802;52.832;4.758;2022-10-16T06:03:38;3.35;;;1.27;;
11490;SDS011;5802;52.832;4.758;2022-10-16T06:06:08;3.20;;;1.27;;
11490;SDS011;5802;52.832;4.758;2022-10-16T06:08:37;3.60;;;1.20;;
11490;SDS011;5802;52.832;4.758;2022-10-16T06:11:05;3.97;;;1.20;;
11490;SDS011;5802;52.832;4.758;2022-10-16T06:13:32;3.72;;;1.15;;
11490;SDS011;5802;52.832;4.758;2022-10-16T06:16:00;2.65;;;1.10;;
11490;SDS011;5802;52.832;4.758;2022-10-16T06:18:28;2.60;;;1.00;;
11490;SDS011;5802;52.832;4.758;2022-10-16T06:20:55;3.42;;;1.30;;
11490;SDS011;5802;52.832;4.758;2022-10-16T06:23:22;2.53;;;1.13;;
11490;SDS011;5802;52.832;4.758;2022-10-16T06:25:51;2.95;;;1.35;;
11490;SDS011;5802;52.832;4.758;2022-10-16T06:28:17;4.32;;;1.50;;
11490;SDS011;5802;52.832;4.758;2022-10-16T06:30:45;3.92;;;1.27;;
11490;SDS011;5802;52.832;4.758;2022-10-16T06:33:12;3.53;;;1.13;;
11490;SDS011;5802;52.832;4.758;2022-10-16T06:35:39;2.55;;;1.00;;
11490;SDS011;5802;52.832;4.758;2022-10-16T06:38:05;2.35;;;1.10;;
11490;SDS011;5802;52.832;4.758;2022-10-16T06:40:32;3.70;;;1.40;;
11490;SDS011;5802;52.832;4.758;2022-10-16T06:43:00;2.63;;;1.08;;
11490;SDS011;5802;52.832;4.758;2022-10-16T06:45:27;4.15;;;1.25;;
11490;SDS011;5802;52.832;4.758;2022-10-16T06:47:53;1.80;;;1.00;;
11490;SDS011;5802;52.832;4.758;2022-10-16T06:50:20;2.60;;;0.88;;
11490;SDS011;5802;52.832;4.758;2022-10-16T06:52:47;2.92;;;1.00;;
11490;SDS011;5802;52.832;4.758;2022-10-16T06:55:14;2.95;;;1.17;;
11490;SDS011;5802;52.832;4.758;2022-10-16T06:57:42;3.15;;;1.17;;
11490;SDS011;5802;52.832;4.758;2022-10-16T07:00:10;2.83;;;1.23;;
11490;SDS011;5802;52.832;4.758;2022-10-16T07:02:37;3.80;;;1.00;;
11490;SDS011;5802;52.832;4.758;2022-10-16T07:05:04;5.00;;;1.40;;
11490;SDS011;5802;52.832;4.758;2022-10-16T07:07:31;3.50;;;1.23;;
11490;SDS011;5802;52.832;4.758;2022-10-16T07:09:58;4.82;;;1.55;;
11490;SDS011;5802;52.832;4.758;2022-10-16T07:12:24;3.15;;;1.20;;
11490;SDS011;5802;52.832;4.758;2022-10-16T07:14:51;3.38;;;1.23;;
11490;SDS011;5802;52.832;4.758;2022-10-16T07:17:20;4.20;;;1.30;;
11490;SDS011;5802;52.832;4.758;2022-10-16T07:19:47;2.15;;;1.00;;
11490;SDS011;5802;52.832;4.758;2022-10-16T07:22:13;5.63;;;1.40;;
11490;SDS011;5802;52.832;4.758;2022-10-16T07:24:40;2.38;;;1.20;;
11490;SDS011;5802;52.832;4.758;2022-10-16T07:27:08;3.70;;;1.38;;
11490;SDS011;5802;52.832;4.758;2022-10-16T07:29:35;2.92;;;1.10;;
11490;SDS011;5802;52.832;4.758;2022-10-16T07:32:01;5.28;;;1.30;;
11490;SDS011;5802;52.832;4.758;2022-10-16T07:34:30;4.90;;;1.50;;
11490;SDS011;5802;52.832;4.758;2022-10-16T07:36:56;5.55;;;1.40;;
11490;SDS011;5802;52.832;4.758;2022-10-16T07:39:23;3.83;;;1.63;;
11490;SDS011;5802;52.832;4.758;2022-10-16T07:41:50;5.05;;;1.40;;
11490;SDS011;5802;52.832;4.758;2022-10-16T07:44:16;4.85;;;1.60;;
11490;SDS011;5802;52.832;4.758;2022-10-16T07:46:43;5.63;;;1.52;;
11490;SDS011;5802;52.832;4.758;2022-10-16T07:49:10;4.20;;;1.40;;
11490;SDS011;5802;52.832;4.758;2022-10-16T07:51:38;3.58;;;1.23;;
11490;SDS011;5802;52.832;4.758;2022-10-16T07:54:04;3.58;;;1.30;;
11490;SDS011;5802;52.832;4.758;2022-10-16T07:56:31;5.43;;;1.50;;
11490;SDS011;5802;52.832;4.758;2022-10-16T07:58:58;3.88;;;1.13;;
11490;SDS011;5802;52.832;4.758;2022-10-16T08:01:24;5.55;;;1.48;;
11490;SDS011;5802;52.832;4.758;2022-10-16T08:03:52;4.90;;;1.65;;
11490;SDS011;5802;52.832;4.758;2022-10-16T08:06:19;3.78;;;1.23;;
11490;SDS011;5802;52.832;4.758;2022-10-16T08:08:49;3.75;;;1.40;;
11490;SDS011;5802;52.832;4.758;2022-10-16T08:11:15;3.13;;;1.20;;
11490;SDS011;5802;52.832;4.758;2022-10-16T08:13:42;2.75;;;1.10;;
11490;SDS011;5802;52.832;4.758;2022-10-16T08:16:09;5.35;;;1.80;;
11490;SDS011;5802;52.832;4.758;2022-10-16T08:18:36;3.75;;;1.55;;
11490;SDS011;5802;52.832;4.758;2022-10-16T08:21:04;3.25;;;1.35;;
11490;SDS011;5802;52.832;4.758;2022-10-16T08:23:32;3.58;;;1.25;;
11490;SDS011;5802;52.832;4.758;2022-10-16T08:26:03;3.08;;;1.23;;
11490;SDS011;5802;52.832;4.758;2022-10-16T08:28:31;3.38;;;1.30;;
11490;SDS011;5802;52.832;4.758;2022-10-16T08:31:04;3.47;;;1.20;;
11490;SDS011;5802;52.832;4.758;2022-10-16T08:33:31;3.17;;;1.50;;
11490;SDS011;5802;52.832;4.758;2022-10-16T08:35:59;3.70;;;1.52;;
11490;SDS011;5802;52.832;4.758;2022-10-16T08:38:26;4.25;;;1.63;;
11490;SDS011;5802;52.832;4.758;2022-10-16T08:40:53;2.85;;;1.30;;
11490;SDS011;5802;52.832;4.758;2022-10-16T08:43:28;3.35;;;1.40;;
11490;SDS011;5802;52.832;4.758;2022-10-16T08:46:13;2.25;;;1.33;;
11490;SDS011;5802;52.832;4.758;2022-10-16T08:48:48;2.88;;;1.10;;
11490;SDS011;5802;52.832;4.758;2022-10-16T08:51:18;3.97;;;1.20;;
11490;SDS011;5802;52.832;4.758;2022-10-16T08:53:49;3.58;;;1.48;;
11490;SDS011;5802;52.832;4.758;2022-10-16T08:56:19;3.78;;;1.42;;
11490;SDS011;5802;52.832;4.758;2022-10-16T08:58:48;4.32;;;1.60;;
11490;SDS011;5802;52.832;4.758;2022-10-16T09:01:17;3.53;;;1.48;;
11490;SDS011;5802;52.832;4.758;2022-10-16T09:04:01;4.07;;;1.48;;
11490;SDS011;5802;52.832;4.758;2022-10-16T09:06:41;3.90;;;1.40;;
11490;SDS011;5802;52.832;4.758;2022-10-16T09:09:19;4.00;;;1.52;;
11490;SDS011;5802;52.832;4.758;2022-10-16T09:11:56;7.85;;;1.60;;
11490;SDS011;5802;52.832;4.758;2022-10-16T09:14:37;4.65;;;1.60;;
11490;SDS011;5802;52.832;4.758;2022-10-16T09:17:19;3.80;;;1.73;;
11490;SDS011;5802;52.832;4.758;2022-10-16T09:19:53;5.22;;;1.70;;
11490;SDS011;5802;52.832;4.758;2022-10-16T09:22:31;5.95;;;1.75;;
11490;SDS011;5802;52.832;4.758;2022-10-16T09:24:59;3.42;;;1.65;;
11490;SDS011;5802;52.832;4.758;2022-10-16T09:27:36;3.65;;;1.52;;
11490;SDS011;5802;52.832;4.758;2022-10-16T09:30:09;5.13;;;1.65;;
11490;SDS011;5802;52.832;4.758;2022-10-16T09:32:37;6.03;;;1.70;;
11490;SDS011;5802;52.832;4.758;2022-10-16T09:35:09;5.78;;;1.73;;
11490;SDS011;5802;52.832;4.758;2022-10-16T09:37:40;7.55;;;1.70;;
11490;SDS011;5802;52.832;4.758;2022-10-16T09:40:11;6.75;;;1.80;;
11490;SDS011;5802;52.832;4.758;2022-10-16T09:42:39;5.95;;;2.00;;
11490;SDS011;5802;52.832;4.758;2022-10-16T09:45:20;8.00;;;2.10;;
11490;SDS011;5802;52.832;4.758;2022-10-16T09:47:49;5.90;;;1.88;;
11490;SDS011;5802;52.832;4.758;2022-10-16T09:50:20;6.20;;;2.10;;
11490;SDS011;5802;52.832;4.758;2022-10-16T09:52:49;6.40;;;1.90;;
11490;SDS011;5802;52.832;4.758;2022-10-16T09:55:16;8.15;;;2.35;;
11490;SDS011;5802;52.832;4.758;2022-10-16T09:57:50;7.82;;;2.05;;
11490;SDS011;5802;52.832;4.758;2022-10-16T10:00:17;9.05;;;2.30;;
11490;SDS011;5802;52.832;4.758;2022-10-16T10:02:45;11.55;;;1.88;;
11490;SDS011;5802;52.832;4.758;2022-10-16T10:05:17;7.15;;;2.10;;
11490;SDS011;5802;52.832;4.758;2022-10-16T10:07:52;10.00;;;2.03;;
11490;SDS011;5802;52.832;4.758;2022-10-16T10:10:22;12.55;;;2.17;;
11490;SDS011;5802;52.832;4.758;2022-10-16T10:12:50;6.20;;;2.13;;
11490;SDS011;5802;52.832;4.758;2022-10-16T10:15:17;5.70;;;2.10;;
11490;SDS011;5802;52.832;4.758;2022-10-16T10:17:48;7.93;;;2.28;;
11490;SDS011;5802;52.832;4.758;2022-10-16T10:20:23;8.60;;;1.90;;
11490;SDS011;5802;52.832;4.758;2022-10-16T10:22:52;6.30;;;1.90;;
11490;SDS011;5802;52.832;4.758;2022-10-16T10:25:32;7.90;;;1.90;;
11490;SDS011;5802;52.832;4.758;2022-10-16T10:28:23;6.88;;;2.13;;
11490;SDS011;5802;52.832;4.758;2022-10-16T10:31:01;8.20;;;1.90;;
11490;SDS011;5802;52.832;4.758;2022-10-16T10:33:37;9.57;;;2.28;;
11490;SDS011;5802;52.832;4.758;2022-10-16T10:36:16;6.43;;;2.35;;
11490;SDS011;5802;52.832;4.758;2022-10-16T10:38:54;6.90;;;2.10;;
11490;SDS011;5802;52.832;4.758;2022-10-16T10:41:27;4.32;;;2.10;;
11490;SDS011;5802;52.832;4.758;2022-10-16T10:44:07;4.40;;;1.58;;
11490;SDS011;5802;52.832;4.758;2022-10-16T10:46:44;6.38;;;2.30;;
11490;SDS011;5802;52.832;4.758;2022-10-16T10:49:31;7.82;;;2.42;;
11490;SDS011;5802;52.832;4.758;2022-10-16T10:52:11;3.75;;;1.77;;
11490;SDS011;5802;52.832;4.758;2022-10-16T10:54:49;5.90;;;2.10;;
11490;SDS011;5802;52.832;4.758;2022-10-16T10:57:25;4.30;;;1.92;;
11490;SDS011;5802;52.832;4.758;2022-10-16T11:00:01;8.45;;;2.20;;
11490;SDS011;5802;52.832;4.758;2022-10-16T11:02:35;7.57;;;2.42;;
11490;SDS011;5802;52.832;4.758;2022-10-16T11:08:07;6.63;;;1.88;;
11490;SDS011;5802;52.832;4.758;2022-10-16T11:10:40;7.63;;;2.22;;
11490;SDS011;5802;52.832;4.758;2022-10-16T11:13:15;5.93;;;1.40;;
11490;SDS011;5802;52.832;4.758;2022-10-16T11:15:50;8.52;;;1.90;;
11490;SDS011;5802;52.832;4.758;2022-10-16T11:18:22;7.53;;;1.77;;
11490;SDS011;5802;52.832;4.758;2022-10-16T11:20:56;3.55;;;1.25;;
11490;SDS011;5802;52.832;4.758;2022-10-16T11:23:26;4.93;;;1.77;;
11490;SDS011;5802;52.832;4.758;2022-10-16T11:25:57;6.13;;;1.63;;
11490;SDS011;5802;52.832;4.758;2022-10-16T11:28:29;5.30;;;1.90;;
11490;SDS011;5802;52.832;4.758;2022-10-16T11:31:00;3.85;;;1.70;;
11490;SDS011;5802;52.832;4.758;2022-10-16T11:33:32;5.10;;;2.03;;
11490;SDS011;5802;52.832;4.758;2022-10-16T11:36:06;6.82;;;1.73;;
11490;SDS011;5802;52.832;4.758;2022-10-16T11:38:41;4.95;;;1.67;;
11490;SDS011;5802;52.832;4.758;2022-10-16T11:41:17;4.03;;;1.58;;
11490;SDS011;5802;52.832;4.758;2022-10-16T11:43:52;4.72;;;1.80;;
11490;SDS011;5802;52.832;4.758;2022-10-16T11:46:30;8.38;;;2.03;;
11490;SDS011;5802;52.832;4.758;2022-10-16T11:49:02;5.55;;;2.08;;
11490;SDS011;5802;52.832;4.758;2022-10-16T11:51:38;6.15;;;1.55;;
11490;SDS011;5802;52.832;4.758;2022-10-16T11:54:10;5.00;;;1.80;;
11490;SDS011;5802;52.832;4.758;2022-10-16T11:56:46;5.80;;;1.55;;
11490;SDS011;5802;52.832;4.758;2022-10-16T11:59:17;5.68;;;1.52;;
11490;SDS011;5802;52.832;4.758;2022-10-16T12:01:49;4.50;;;1.65;;
11490;SDS011;5802;52.832;4.758;2022-10-16T12:04:22;5.43;;;1.55;;
11490;SDS011;5802;52.832;4.758;2022-10-16T12:07:01;5.90;;;1.80;;
11490;SDS011;5802;52.832;4.758;2022-10-16T12:09:30;4.28;;;1.50;;
11490;SDS011;5802;52.832;4.758;2022-10-16T12:11:58;5.15;;;1.50;;
11490;SDS011;5802;52.832;4.758;2022-10-16T12:14:36;5.05;;;1.70;;
11490;SDS011;5802;52.832;4.758;2022-10-16T12:20:00;4.68;;;1.67;;
11490;SDS011;5802;52.832;4.758;2022-10-16T12:22:41;6.53;;;1.70;;
11490;SDS011;5802;52.832;4.758;2022-10-16T12:25:19;4.93;;;1.50;;
11490;SDS011;5802;52.832;4.758;2022-10-16T12:27:53;4.07;;;1.55;;
11490;SDS011;5802;52.832;4.758;2022-10-16T12:30:22;5.68;;;1.63;;
11490;SDS011;5802;52.832;4.758;2022-10-16T12:32:53;4.47;;;1.45;;
11490;SDS011;5802;52.832;4.758;2022-10-16T12:35:23;4.80;;;1.73;;
11490;SDS011;5802;52.832;4.758;2022-10-16T12:37:53;4.50;;;1.55;;
11490;SDS011;5802;52.832;4.758;2022-10-16T12:40:30;5.95;;;1.90;;
11490;SDS011;5802;52.832;4.758;2022-10-16T12:43:10;4.75;;;1.33;;
11490;SDS011;5802;52.832;4.758;2022-10-16T12:45:37;6.28;;;1.55;;
11490;SDS011;5802;52.832;4.758;2022-10-16T12:48:04;3.47;;;1.30;;
11490;SDS011;5802;52.832;4.758;2022-10-16T12:50:45;5.03;;;1.63;;
11490;SDS011;5802;52.832;4.758;2022-10-16T12:53:20;4.03;;;1.50;;
11490;SDS011;5802;52.832;4.758;2022-10-16T12:55:51;5.07;;;1.60;;
11490;SDS011;5802;52.832;4.758;2022-10-16T13:01:20;3.42;;;1.30;;
11490;SDS011;5802;52.832;4.758;2022-10-16T13:04:03;5.47;;;1.52;;
11490;SDS011;5802;52.832;4.758;2022-10-16T13:06:45;8.27;;;1.65;;
11490;SDS011;5802;52.832;4.758;2022-10-16T13:12:25;3.75;;;1.40;;
11490;SDS011;5802;52.832;4.758;2022-10-16T13:15:09;5.22;;;1.30;;
11490;SDS011;5802;52.832;4.758;2022-10-16T13:17:50;7.30;;;1.55;;
11490;SDS011;5802;52.832;4.758;2022-10-16T13:20:26;7.32;;;1.48;;
11490;SDS011;5802;52.832;4.758;2022-10-16T13:23:02;5.68;;;1.55;;
11490;SDS011;5802;52.832;4.758;2022-10-16T13:25:38;5.90;;;1.55;;
11490;SDS011;5802;52.832;4.758;2022-10-16T13:28:14;8.75;;;1.48;;
11490;SDS011;5802;52.832;4.758;2022-10-16T13:30:44;10.50;;;1.90;;
11490;SDS011;5802;52.832;4.758;2022-10-16T13:33:17;5.53;;;1.42;;
11490;SDS011;5802;52.832;4.758;2022-10-16T13:35:47;10.13;;;1.60;;
11490;SDS011;5802;52.832;4.758;2022-10-16T13:38:16;14.57;;;1.88;;
11490;SDS011;5802;52.832;4.758;2022-10-16T13:40:49;5.28;;;1.50;;
11490;SDS011;5802;52.832;4.758;2022-10-16T13:43:18;4.95;;;1.40;;
11490;SDS011;5802;52.832;4.758;2022-10-16T13:45:53;5.78;;;1.48;;
11490;SDS011;5802;52.832;4.758;2022-10-16T13:48:24;12.05;;;1.58;;
11490;SDS011;5802;52.832;4.758;2022-10-16T13:50:58;5.60;;;1.60;;
11490;SDS011;5802;52.832;4.758;2022-10-16T13:53:32;4.55;;;1.15;;
11490;SDS011;5802;52.832;4.758;2022-10-16T13:56:03;5.43;;;1.65;;
11490;SDS011;5802;52.832;4.758;2022-10-16T13:58:31;11.60;;;1.58;;
11490;SDS011;5802;52.832;4.758;2022-10-16T14:00:58;9.55;;;1.63;;
11490;SDS011;5802;52.832;4.758;2022-10-16T14:03:27;6.00;;;1.50;;
11490;SDS011;5802;52.832;4.758;2022-10-16T14:05:55;6.38;;;1.58;;
11490;SDS011;5802;52.832;4.758;2022-10-16T14:08:25;5.38;;;1.48;;
11490;SDS011;5802;52.832;4.758;2022-10-16T14:10:54;2.97;;;1.13;;
11490;SDS011;5802;52.832;4.758;2022-10-16T14:13:26;7.85;;;1.75;;
11490;SDS011;5802;52.832;4.758;2022-10-16T14:15:57;5.30;;;1.75;;
11490;SDS011;5802;52.832;4.758;2022-10-16T14:18:28;6.68;;;1.30;;
11490;SDS011;5802;52.832;4.758;2022-10-16T14:21:02;4.13;;;1.50;;
11490;SDS011;5802;52.832;4.758;2022-10-16T14:23:30;5.47;;;1.33;;
11490;SDS011;5802;52.832;4.758;2022-10-16T14:26:13;4.28;;;1.17;;
11490;SDS011;5802;52.832;4.758;2022-10-16T14:28:43;2.85;;;1.33;;
11490;SDS011;5802;52.832;4.758;2022-10-16T14:31:23;8.13;;;1.70;;
11490;SDS011;5802;52.832;4.758;2022-10-16T14:33:56;2.63;;;1.30;;
11490;SDS011;5802;52.832;4.758;2022-10-16T14:36:22;2.45;;;1.20;;
11490;SDS011;5802;52.832;4.758;2022-10-16T14:38:54;3.42;;;1.33;;
11490;SDS011;5802;52.832;4.758;2022-10-16T14:41:25;5.03;;;1.42;;
11490;SDS011;5802;52.832;4.758;2022-10-16T14:43:54;7.25;;;1.10;;
11490;SDS011;5802;52.832;4.758;2022-10-16T14:46:28;3.33;;;1.33;;
11490;SDS011;5802;52.832;4.758;2022-10-16T14:49:00;5.22;;;1.27;;
11490;SDS011;5802;52.832;4.758;2022-10-16T14:51:29;6.60;;;1.45;;
11490;SDS011;5802;52.832;4.758;2022-10-16T14:53:55;5.88;;;1.30;;
11490;SDS011;5802;52.832;4.758;2022-10-16T14:56:23;5.57;;;1.70;;
11490;SDS011;5802;52.832;4.758;2022-10-16T14:58:51;6.43;;;1.33;;
11490;SDS011;5802;52.832;4.758;2022-10-16T15:01:20;3.42;;;1.02;;
11490;SDS011;5802;52.832;4.758;2022-10-16T15:03:47;7.97;;;1.50;;
11490;SDS011;5802;52.832;4.758;2022-10-16T15:06:17;4.85;;;1.50;;
11490;SDS011;5802;52.832;4.758;2022-10-16T15:08:43;3.13;;;1.30;;
11490;SDS011;5802;52.832;4.758;2022-10-16T15:11:10;4.45;;;1.13;;
11490;SDS011;5802;52.832;4.758;2022-10-16T15:13:40;2.47;;;1.00;;
11490;SDS011;5802;52.832;4.758;2022-10-16T15:16:08;2.03;;;1.00;;
11490;SDS011;5802;52.832;4.758;2022-10-16T15:18:37;3.58;;;1.08;;
11490;SDS011;5802;52.832;4.758;2022-10-16T15:21:04;5.10;;;1.00;;
11490;SDS011;5802;52.832;4.758;2022-10-16T15:23:31;2.80;;;1.42;;
11490;SDS011;5802;52.832;4.758;2022-10-16T15:25:58;4.07;;;1.00;;
11490;SDS011;5802;52.832;4.758;2022-10-16T15:28:25;3.78;;;1.10;;
11490;SDS011;5802;52.832;4.758;2022-10-16T15:30:52;6.07;;;1.50;;
11490;SDS011;5802;52.832;4.758;2022-10-16T15:33:22;6.15;;;1.27;;